Time;durP1;ratioP1;P1;durP2;ratioP2;P2;SDS_P1;SDS_P2;PMS_P1;PMS_P2;Temp;Humidity;BMP_temperature;BMP_pressure;BME280_temperature;BME280_humidity;BME280_pressure;Samples;Min_cycle;Max_cycle;Signal;HPM_P1;HPM_P2
2022/08/08 00:00:34;;;;;;;4.70;3.23;;;;;;;;;;5036296;28;20201;-78
2022/08/08 00:03:48;;;;;;;3.50;2.83;;;;;;;;;;5025188;28;20623;-78
2022/08/08 00:07:25;;;;;;;5.47;3.70;;;;;;;;;;5036287;28;20520;-78
2022/08/08 00:11:01;;;;;;;4.13;3.20;;;;;;;;;;5024413;28;20208;-78
2022/08/08 00:14:08;;;;;;;3.30;3.00;;;;;;;;;;5017861;28;20205;-79
2022/08/08 00:17:18;;;;;;;4.67;3.13;;;;;;;;;;5015662;28;20177;-78
2022/08/08 00:20:46;;;;;;;5.17;3.73;;;;;;;;;;5037661;28;20173;-78
2022/08/08 00:23:54;;;;;;;6.07;3.23;;;;;;;;;;5015400;28;20185;-78
2022/08/08 00:27:05;;;;;;;3.60;3.30;;;;;;;;;;5042133;28;20199;-79
2022/08/08 00:30:11;;;;;;;4.73;3.47;;;;;;;;;;5022209;28;20223;-79
2022/08/08 00:33:18;;;;;;;4.60;3.67;;;;;;;;;;5041424;28;20200;-79
2022/08/08 00:36:29;;;;;;;4.10;3.63;;;;;;;;;;5045055;28;20528;-79
2022/08/08 00:39:46;;;;;;;3.70;3.40;;;;;;;;;;5020483;28;20184;-79
2022/08/08 00:43:21;;;;;;;7.47;3.63;;;;;;;;;;5024480;28;20556;-78
2022/08/08 00:46:43;;;;;;;4.27;3.27;;;;;;;;;;5023632;28;20280;-79
2022/08/08 00:49:57;;;;;;;3.83;3.43;;;;;;;;;;5024160;28;20209;-78
2022/08/08 00:53:19;;;;;;;4.33;3.70;;;;;;;;;;5024096;28;20185;-78
2022/08/08 00:56:30;;;;;;;4.77;3.50;;;;;;;;;;5023115;28;20185;-79
2022/08/08 01:00:01;;;;;;;4.20;3.50;;;;;;;;;;5011883;28;20173;-78
2022/08/08 01:03:28;;;;;;;3.80;3.50;;;;;;;;;;5014265;28;20180;-78
2022/08/08 01:07:11;;;;;;;3.80;3.40;;;;;;;;;;5014261;28;20185;-78
2022/08/08 01:10:24;;;;;;;4.43;3.60;;;;;;;;;;5025725;28;20204;-78
2022/08/08 01:14:08;;;;;;;4.33;3.37;;;;;;;;;;5026187;28;20192;-79
2022/08/08 01:18:00;;;;;;;4.80;3.90;;;;;;;;;;5013985;28;20201;-78
2022/08/08 01:21:32;;;;;;;3.90;3.57;;;;;;;;;;5007712;28;20220;-79
2022/08/08 01:25:14;;;;;;;5.63;3.73;;;;;;;;;;5024786;28;20531;-78
2022/08/08 01:28:45;;;;;;;3.77;3.23;;;;;;;;;;5013895;28;20181;-78
2022/08/08 01:31:58;;;;;;;4.00;3.23;;;;;;;;;;5017447;28;20212;-78
2022/08/08 01:35:16;;;;;;;4.07;3.37;;;;;;;;;;5044234;28;20649;-79
2022/08/08 01:38:54;;;;;;;4.07;3.60;;;;;;;;;;5056699;28;20177;-78
2022/08/08 01:42:02;;;;;;;3.90;3.50;;;;;;;;;;5032536;28;20208;-78
2022/08/08 01:45:24;;;;;;;8.27;4.03;;;;;;;;;;5033193;28;20181;-78
2022/08/08 01:48:43;;;;;;;4.10;3.70;;;;;;;;;;5044482;28;20181;-78
2022/08/08 01:52:08;;;;;;;4.00;3.60;;;;;;;;;;5021596;28;20212;-78
2022/08/08 01:55:37;;;;;;;3.97;3.67;;;;;;;;;;5056692;28;20188;-78
2022/08/08 01:59:03;;;;;;;3.67;3.33;;;;;;;;;;5014730;28;20192;-78
2022/08/08 02:02:39;;;;;;;3.83;3.53;;;;;;;;;;5013193;28;20220;-79
2022/08/08 02:06:14;;;;;;;4.30;3.90;;;;;;;;;;5025526;28;20181;-79
2022/08/08 02:09:35;;;;;;;4.37;3.97;;;;;;;;;;5043828;28;20197;-78
2022/08/08 02:12:56;;;;;;;4.20;3.60;;;;;;;;;;5032820;28;20223;-78
2022/08/08 02:16:22;;;;;;;4.13;3.73;;;;;;;;;;5032997;28;20627;-78
2022/08/08 02:19:38;;;;;;;4.77;3.40;;;;;;;;;;5020710;28;20184;-78
2022/08/08 02:23:05;;;;;;;5.83;3.87;;;;;;;;;;5020527;28;20224;-78
2022/08/08 02:26:25;;;;;;;4.37;3.97;;;;;;;;;;5032007;28;20184;-78
2022/08/08 02:29:58;;;;;;;4.23;3.83;;;;;;;;;;5028233;28;20543;-78
2022/08/08 02:33:41;;;;;;;4.30;3.90;;;;;;;;;;5042991;28;20180;-78
2022/08/08 02:36:57;;;;;;;3.90;3.60;;;;;;;;;;5043485;28;20173;-78
2022/08/08 02:40:13;;;;;;;3.50;3.20;;;;;;;;;;5042721;28;20662;-78
2022/08/08 02:43:39;;;;;;;4.10;3.70;;;;;;;;;;5054406;28;20180;-78
2022/08/08 02:47:03;;;;;;;4.83;3.60;;;;;;;;;;5043775;28;20180;-79
2022/08/08 02:50:38;;;;;;;4.93;3.63;;;;;;;;;;5054400;28;20212;-78
2022/08/08 02:53:58;;;;;;;3.93;3.53;;;;;;;;;;5043581;28;20184;-78
2022/08/08 02:57:23;;;;;;;6.57;4.00;;;;;;;;;;5054437;28;20508;-78
2022/08/08 03:00:55;;;;;;;4.20;3.80;;;;;;;;;;5086710;22;20232;-83
2022/08/08 03:04:34;;;;;;;4.47;4.03;;;;;;;;;;5011169;28;20177;-83
2022/08/08 03:08:04;;;;;;;4.23;3.83;;;;;;;;;;5010330;28;20185;-83
2022/08/08 03:11:46;;;;;;;4.77;4.10;;;;;;;;;;5024201;28;20221;-83
2022/08/08 03:15:01;;;;;;;4.60;4.20;;;;;;;;;;5018053;28;20186;-83
2022/08/08 03:18:12;;;;;;;5.33;3.90;;;;;;;;;;5006680;28;20182;-83
2022/08/08 03:21:16;;;;;;;4.00;3.60;;;;;;;;;;5006698;28;20217;-83
2022/08/08 03:24:22;;;;;;;4.43;3.70;;;;;;;;;;5014258;28;20181;-83
2022/08/08 03:28:01;;;;;;;5.70;3.60;;;;;;;;;;5014156;28;20177;-83
2022/08/08 03:34:34;;;;;;;4.50;4.07;;;;;;;;;;5014282;28;20189;-83
2022/08/08 03:37:38;;;;;;;3.53;3.23;;;;;;;;;;5014117;28;20517;-83
2022/08/08 03:40:54;;;;;;;3.63;3.33;;;;;;;;;;5036538;28;20208;-83
2022/08/08 03:44:01;;;;;;;6.53;3.80;;;;;;;;;;5013417;28;20177;-83
2022/08/08 03:47:06;;;;;;;8.70;3.50;;;;;;;;;;5024427;28;20651;-83
2022/08/08 03:50:18;;;;;;;4.80;3.40;;;;;;;;;;5012589;28;20220;-83
2022/08/08 03:53:24;;;;;;;4.27;3.47;;;;;;;;;;5013235;28;20181;-83
2022/08/08 03:56:32;;;;;;;3.60;3.30;;;;;;;;;;5013077;28;20181;-83
2022/08/08 03:59:36;;;;;;;4.17;3.77;;;;;;;;;;5013564;28;20212;-83
2022/08/08 04:02:40;;;;;;;3.67;3.37;;;;;;;;;;5024693;28;20180;-83
2022/08/08 04:05:45;;;;;;;3.67;3.37;;;;;;;;;;5024330;28;20181;-83
2022/08/08 04:08:50;;;;;;;3.50;3.20;;;;;;;;;;5013330;28;20181;-83
2022/08/08 04:12:00;;;;;;;4.43;3.67;;;;;;;;;;5024090;28;20208;-83
2022/08/08 04:15:30;;;;;;;3.47;3.17;;;;;;;;;;5037268;28;20185;-83
2022/08/08 04:18:35;;;;;;;3.20;2.83;;;;;;;;;;5025093;28;20177;-83
2022/08/08 04:21:39;;;;;;;8.23;4.33;;;;;;;;;;5014138;28;20196;-83
2022/08/08 04:24:43;;;;;;;4.33;2.93;;;;;;;;;;5012600;28;20181;-84
2022/08/08 04:27:49;;;;;;;7.80;3.60;;;;;;;;;;5012981;28;20177;-84
2022/08/08 04:30:54;;;;;;;4.10;3.33;;;;;;;;;;5012405;28;20221;-84
2022/08/08 04:33:58;;;;;;;4.87;3.00;;;;;;;;;;5012222;28;20667;-84
2022/08/08 04:37:02;;;;;;;5.27;3.03;;;;;;;;;;5012426;28;20192;-83
2022/08/08 04:40:07;;;;;;;3.90;3.00;;;;;;;;;;5024017;28;20228;-84
2022/08/08 04:43:15;;;;;;;6.03;3.70;;;;;;;;;;5004363;28;20189;-84
2022/08/08 04:46:23;;;;;;;3.93;3.20;;;;;;;;;;5012685;28;20189;-84
2022/08/08 04:49:28;;;;;;;4.93;3.20;;;;;;;;;;5000899;28;20181;-84
2022/08/08 04:52:32;;;;;;;6.20;3.90;;;;;;;;;;5011435;28;20185;-84
2022/08/08 04:55:37;;;;;;;8.00;3.50;;;;;;;;;;5011918;28;20181;-84
2022/08/08 04:58:42;;;;;;;6.47;3.80;;;;;;;;;;5011601;28;20521;-84
2022/08/08 05:01:46;;;;;;;7.67;4.40;;;;;;;;;;5013387;28;20169;-84
2022/08/08 05:04:50;;;;;;;5.73;3.70;;;;;;;;;;5011568;28;20181;-85
2022/08/08 05:07:55;;;;;;;4.40;3.43;;;;;;;;;;5011628;28;20177;-84
2022/08/08 05:10:59;;;;;;;5.53;3.73;;;;;;;;;;4999534;28;20556;-84
2022/08/08 05:14:03;;;;;;;5.17;3.90;;;;;;;;;;5026818;28;20570;-84
2022/08/08 05:17:10;;;;;;;4.30;3.90;;;;;;;;;;5023574;28;20200;-84
2022/08/08 05:20:14;;;;;;;4.70;3.73;;;;;;;;;;5004236;28;20217;-85
2022/08/08 05:23:19;;;;;;;5.23;4.13;;;;;;;;;;5003239;28;20568;-85
2022/08/08 05:26:24;;;;;;;5.13;3.90;;;;;;;;;;5011049;28;20181;-84
2022/08/08 05:29:29;;;;;;;4.23;3.50;;;;;;;;;;5010779;28;20181;-84
2022/08/08 05:32:33;;;;;;;5.57;4.20;;;;;;;;;;5009882;28;20180;-84
2022/08/08 05:35:41;;;;;;;17.50;4.30;;;;;;;;;;5021869;28;20184;-84
2022/08/08 05:38:49;;;;;;;8.50;4.57;;;;;;;;;;5021997;28;20185;-84
2022/08/08 05:41:57;;;;;;;13.63;4.40;;;;;;;;;;5022212;28;20173;-84
2022/08/08 05:45:03;;;;;;;13.93;4.60;;;;;;;;;;5010809;28;20517;-84
2022/08/08 05:48:09;;;;;;;8.10;4.80;;;;;;;;;;5010574;28;20203;-84
2022/08/08 05:51:16;;;;;;;5.77;4.53;;;;;;;;;;4999389;28;20220;-84
2022/08/08 05:54:24;;;;;;;5.93;4.30;;;;;;;;;;5010918;28;20189;-84
2022/08/08 05:57:33;;;;;;;8.33;4.63;;;;;;;;;;4989425;28;20188;-84
2022/08/08 06:00:39;;;;;;;4.83;4.33;;;;;;;;;;5009988;28;20232;-84
2022/08/08 06:03:46;;;;;;;4.87;4.47;;;;;;;;;;5010656;28;20181;-84
2022/08/08 06:06:53;;;;;;;4.90;4.40;;;;;;;;;;5010169;28;20181;-84
2022/08/08 06:10:01;;;;;;;5.97;4.20;;;;;;;;;;5010287;28;20216;-84
2022/08/08 06:13:08;;;;;;;5.57;4.50;;;;;;;;;;4999966;28;20164;-84
2022/08/08 06:16:16;;;;;;;6.77;4.13;;;;;;;;;;5010520;28;20521;-84
2022/08/08 06:19:40;;;;;;;5.73;3.73;;;;;;;;;;5020977;28;20683;-84
2022/08/08 06:22:44;;;;;;;6.27;3.87;;;;;;;;;;5010188;28;20196;-83
2022/08/08 06:26:02;;;;;;;7.13;4.10;;;;;;;;;;5021210;28;20675;-87
2022/08/08 06:29:10;;;;;;;6.13;3.93;;;;;;;;;;5013217;28;20193;-83
2022/08/08 06:32:16;;;;;;;4.27;3.87;;;;;;;;;;4990356;28;20217;-84
2022/08/08 06:35:24;;;;;;;13.80;3.87;;;;;;;;;;5002538;28;20201;-84
2022/08/08 06:38:36;;;;;;;6.10;3.93;;;;;;;;;;4992975;28;20178;-84
2022/08/08 06:41:48;;;;;;;5.80;3.50;;;;;;;;;;5002158;28;20194;-85
2022/08/08 06:44:55;;;;;;;7.37;3.30;;;;;;;;;;4995634;28;20628;-83
2022/08/08 06:48:00;;;;;;;3.10;2.80;;;;;;;;;;5005629;28;20189;-84
2022/08/08 06:51:04;;;;;;;4.63;2.70;;;;;;;;;;5005336;28;20221;-84
2022/08/08 06:54:09;;;;;;;6.40;3.07;;;;;;;;;;4994424;28;20182;-84
2022/08/08 06:57:13;;;;;;;5.90;2.70;;;;;;;;;;5005601;28;20182;-84
2022/08/08 07:00:17;;;;;;;11.17;2.70;;;;;;;;;;5005769;28;20225;-83
2022/08/08 07:03:38;;;;;;;11.33;2.27;;;;;;;;;;4994600;28;20190;-83
2022/08/08 07:06:51;;;;;;;3.43;1.70;;;;;;;;;;4994192;28;20182;-84
2022/08/08 07:10:03;;;;;;;4.83;2.30;;;;;;;;;;5005537;28;20217;-84
2022/08/08 07:13:16;;;;;;;4.77;1.73;;;;;;;;;;4995652;28;20174;-85
2022/08/08 07:16:27;;;;;;;1.90;1.53;;;;;;;;;;4999605;28;20193;-85
2022/08/08 07:19:55;;;;;;;4.57;1.63;;;;;;;;;;5012906;28;20628;-86
2022/08/08 07:23:21;;;;;;;4.43;1.50;;;;;;;;;;5013268;28;20177;-85
2022/08/08 07:26:31;;;;;;;2.80;1.63;;;;;;;;;;5007945;28;20189;-85
2022/08/08 07:29:36;;;;;;;3.80;1.40;;;;;;;;;;5011553;28;20216;-86
2022/08/08 07:32:42;;;;;;;7.53;2.50;;;;;;;;;;5012873;28;20200;-85
2022/08/08 07:35:51;;;;;;;19.60;2.67;;;;;;;;;;5002429;28;20185;-86
2022/08/08 07:38:57;;;;;;;6.87;2.07;;;;;;;;;;5024716;28;20181;-86
2022/08/08 07:42:01;;;;;;;2.33;1.30;;;;;;;;;;5001955;28;20624;-86
2022/08/08 07:45:06;;;;;;;11.27;2.10;;;;;;;;;;5001721;28;20181;-86
2022/08/08 07:48:14;;;;;;;2.60;1.80;;;;;;;;;;5013526;28;20181;-86
2022/08/08 07:51:19;;;;;;;2.50;1.67;;;;;;;;;;5013031;28;20213;-86
2022/08/08 07:54:38;;;;;;;5.30;1.90;;;;;;;;;;5000766;28;20181;-86
2022/08/08 07:58:08;;;;;;;2.60;1.77;;;;;;;;;;5002055;28;20177;-86
2022/08/08 08:01:19;;;;;;;2.80;1.70;;;;;;;;;;5012325;28;20225;-86
2022/08/08 08:04:32;;;;;;;2.27;1.43;;;;;;;;;;5012873;28;20181;-86
2022/08/08 08:07:40;;;;;;;2.87;1.93;;;;;;;;;;5001579;28;20177;-86
2022/08/08 08:10:55;;;;;;;4.83;1.90;;;;;;;;;;5012396;28;20218;-86
2022/08/08 08:14:05;;;;;;;3.80;1.70;;;;;;;;;;5012089;28;20171;-85
2022/08/08 08:17:18;;;;;;;5.47;2.60;;;;;;;;;;5012880;28;20195;-86
2022/08/08 08:20:27;;;;;;;2.17;1.67;;;;;;;;;;5011692;28;20220;-87
2022/08/08 08:23:32;;;;;;;3.67;1.60;;;;;;;;;;5003546;28;20193;-86
2022/08/08 08:26:36;;;;;;;5.28;1.58;;;;;;;;;;5003955;28;20201;-86
2022/08/08 08:29:41;;;;;;;9.02;1.70;;;;;;;;;;5003592;28;20213;-87
2022/08/08 08:32:46;;;;;;;13.55;2.50;;;;;;;;;;5003232;28;20210;-87
2022/08/08 08:35:53;;;;;;;3.53;1.75;;;;;;;;;;5003750;28;20183;-85
2022/08/08 08:38:58;;;;;;;17.70;1.90;;;;;;;;;;5003632;28;20520;-85
2022/08/08 08:42:13;;;;;;;4.22;1.50;;;;;;;;;;5011490;28;20191;-86
2022/08/08 08:45:18;;;;;;;28.10;3.22;;;;;;;;;;5000255;28;20191;-86
2022/08/08 08:48:23;;;;;;;16.20;1.70;;;;;;;;;;5001062;28;20190;-85
2022/08/08 08:51:31;;;;;;;7.13;1.42;;;;;;;;;;5011464;28;20215;-86
2022/08/08 08:54:38;;;;;;;21.00;2.40;;;;;;;;;;4981427;28;20522;-85
2022/08/08 08:57:43;;;;;;;3.83;1.58;;;;;;;;;;4993609;28;20541;-87
2022/08/08 09:00:47;;;;;;;5.75;1.75;;;;;;;;;;5025497;28;20244;-84
2022/08/08 09:03:58;;;;;;;2.40;1.40;;;;;;;;;;4992041;28;20518;-84
2022/08/08 09:07:08;;;;;;;12.48;1.63;;;;;;;;;;4980648;28;20193;-86
2022/08/08 09:10:13;;;;;;;2.42;1.35;;;;;;;;;;5010700;28;20217;-85
2022/08/08 09:13:20;;;;;;;4.57;1.65;;;;;;;;;;4999878;28;20543;-85
2022/08/08 09:16:26;;;;;;;3.38;1.40;;;;;;;;;;5000131;28;20523;-86
2022/08/08 09:19:31;;;;;;;10.27;1.83;;;;;;;;;;5011054;28;20193;-85
2022/08/08 09:22:36;;;;;;;1.90;1.00;;;;;;;;;;5022639;28;20173;-85
2022/08/08 09:25:57;;;;;;;12.50;2.10;;;;;;;;;;5010988;28;20185;-85
2022/08/08 09:29:06;;;;;;;6.22;1.25;;;;;;;;;;4980782;28;20633;-85
2022/08/08 09:32:15;;;;;;;4.97;1.48;;;;;;;;;;5043938;22;20235;-84
2022/08/08 09:35:29;;;;;;;3.72;1.10;;;;;;;;;;5034668;28;20536;-84
2022/08/08 09:38:51;;;;;;;3.97;1.70;;;;;;;;;;5045145;28;20516;-84
2022/08/08 09:42:01;;;;;;;24.85;2.80;;;;;;;;;;5036748;28;20688;-83
2022/08/08 09:45:25;;;;;;;2.85;1.30;;;;;;;;;;5036727;28;20197;-84
2022/08/08 09:48:31;;;;;;;1.58;1.48;;;;;;;;;;5012607;28;20619;-84
2022/08/08 09:51:39;;;;;;;4.15;1.27;;;;;;;;;;5034550;28;20218;-84
2022/08/08 09:54:43;;;;;;;17.40;2.25;;;;;;;;;;5034909;28;20187;-83
2022/08/08 09:57:49;;;;;;;2.83;1.60;;;;;;;;;;5023014;28;20174;-84
2022/08/08 10:00:58;;;;;;;2.15;1.45;;;;;;;;;;5034843;28;20493;-84
2022/08/08 10:04:13;;;;;;;4.50;1.75;;;;;;;;;;5023583;28;20659;-84
2022/08/08 10:07:17;;;;;;;1.73;1.20;;;;;;;;;;5011164;28;20181;-84
2022/08/08 10:10:32;;;;;;;1.42;1.10;;;;;;;;;;5026539;28;20551;-84
2022/08/08 10:13:36;;;;;;;4.55;1.52;;;;;;;;;;5031276;28;20204;-84
2022/08/08 10:16:42;;;;;;;18.33;2.05;;;;;;;;;;5054731;28;20192;-84
2022/08/08 10:19:46;;;;;;;1.67;1.02;;;;;;;;;;5041817;28;20192;-84
2022/08/08 10:23:00;;;;;;;10.52;1.58;;;;;;;;;;5053657;28;20219;-83
2022/08/08 10:26:05;;;;;;;2.33;1.20;;;;;;;;;;5032402;28;20185;-84
2022/08/08 10:29:11;;;;;;;2.53;1.05;;;;;;;;;;5042829;28;20176;-84
2022/08/08 10:32:36;;;;;;;4.00;1.60;;;;;;;;;;5010395;28;20228;-84
2022/08/08 10:35:40;;;;;;;24.42;2.30;;;;;;;;;;5035357;28;20200;-84
2022/08/08 10:38:44;;;;;;;6.60;1.60;;;;;;;;;;5041804;28;20185;-83
2022/08/08 10:42:05;;;;;;;2.75;1.50;;;;;;;;;;5044975;28;20216;-84
2022/08/08 10:45:10;;;;;;;4.15;1.38;;;;;;;;;;5028265;28;20201;-83
2022/08/08 10:48:14;;;;;;;4.72;1.30;;;;;;;;;;5025580;28;20188;-83
2022/08/08 10:51:19;;;;;;;2.80;1.13;;;;;;;;;;5047036;28;20220;-84
2022/08/08 10:54:24;;;;;;;13.15;1.73;;;;;;;;;;5043220;28;20620;-83
2022/08/08 10:57:28;;;;;;;7.32;1.40;;;;;;;;;;5042701;28;20204;-83
2022/08/08 11:00:34;;;;;;;41.92;3.05;;;;;;;;;;5043457;28;20192;-83
2022/08/08 11:03:41;;;;;;;6.43;1.42;;;;;;;;;;5043820;28;20173;-84
2022/08/08 11:06:45;;;;;;;1.98;1.42;;;;;;;;;;5042899;28;20180;-83
2022/08/08 11:09:50;;;;;;;9.05;1.92;;;;;;;;;;5054963;28;20180;-83
2022/08/08 11:12:58;;;;;;;2.97;0.98;;;;;;;;;;5031083;28;20220;-82
2022/08/08 11:16:02;;;;;;;18.27;1.63;;;;;;;;;;5053030;28;20189;-83
2022/08/08 11:19:07;;;;;;;5.68;1.20;;;;;;;;;;5041445;28;20181;-84
2022/08/08 11:22:13;;;;;;;5.00;1.63;;;;;;;;;;5053142;28;20212;-83
2022/08/08 11:25:23;;;;;;;2.10;1.10;;;;;;;;;;5029918;28;20177;-82
2022/08/08 11:28:32;;;;;;;4.22;1.20;;;;;;;;;;5042744;28;20188;-83
2022/08/08 11:31:39;;;;;;;9.07;1.45;;;;;;;;;;5045275;28;20560;-84
2022/08/08 11:34:49;;;;;;;12.90;1.60;;;;;;;;;;5045591;28;20177;-83
2022/08/08 11:37:53;;;;;;;3.05;1.35;;;;;;;;;;5033689;28;20538;-83
2022/08/08 11:40:58;;;;;;;1.88;1.25;;;;;;;;;;5056350;28;20228;-83
2022/08/08 11:44:04;;;;;;;2.38;1.30;;;;;;;;;;5045577;28;20177;-83
2022/08/08 11:47:08;;;;;;;1.17;1.08;;;;;;;;;;5056557;28;20180;-83
2022/08/08 11:50:18;;;;;;;54.03;4.35;;;;;;;;;;5044944;28;20626;-83
2022/08/08 11:53:22;;;;;;;4.10;1.30;;;;;;;;;;5043517;28;20213;-83
2022/08/08 11:56:32;;;;;;;6.25;1.52;;;;;;;;;;5038658;28;20507;-83
2022/08/08 11:59:42;;;;;;;21.80;2.33;;;;;;;;;;5014334;28;20185;-83
2022/08/08 12:02:49;;;;;;;5.60;1.48;;;;;;;;;;5036626;28;20217;-83
2022/08/08 12:05:53;;;;;;;7.40;1.20;;;;;;;;;;5026863;28;20182;-83
2022/08/08 12:09:07;;;;;;;3.55;1.30;;;;;;;;;;5037676;28;20177;-83
2022/08/08 12:12:21;;;;;;;1.40;1.10;;;;;;;;;;5025038;28;20221;-83
2022/08/08 12:15:31;;;;;;;2.05;1.30;;;;;;;;;;5039053;28;20209;-83
2022/08/08 12:18:51;;;;;;;5.65;1.67;;;;;;;;;;5027630;28;20553;-83
2022/08/08 12:22:06;;;;;;;1.35;1.10;;;;;;;;;;5044208;28;20220;-83
2022/08/08 12:25:19;;;;;;;7.13;1.67;;;;;;;;;;5058381;28;20612;-83
2022/08/08 12:28:23;;;;;;;1.98;1.25;;;;;;;;;;5045242;28;20201;-83
2022/08/08 12:31:35;;;;;;;4.40;1.60;;;;;;;;;;5045511;28;20224;-83
2022/08/08 12:34:57;;;;;;;1.50;1.20;;;;;;;;;;5044847;28;20208;-83
2022/08/08 12:38:06;;;;;;;2.42;1.20;;;;;;;;;;5056003;28;20200;-83
2022/08/08 12:41:12;;;;;;;47.55;3.42;;;;;;;;;;5033284;28;20216;-84
2022/08/08 12:44:26;;;;;;;13.55;1.60;;;;;;;;;;5057259;28;20181;-83
2022/08/08 12:47:31;;;;;;;5.10;1.85;;;;;;;;;;5057770;28;20612;-84
2022/08/08 12:50:43;;;;;;;3.47;1.20;;;;;;;;;;5045559;28;20177;-84
2022/08/08 12:53:58;;;;;;;3.80;1.08;;;;;;;;;;5046049;28;20216;-84
2022/08/08 12:57:23;;;;;;;23.98;2.38;;;;;;;;;;5044119;28;20567;-84
2022/08/08 13:00:28;;;;;;;18.75;2.13;;;;;;;;;;5033450;28;20176;-84
2022/08/08 13:03:32;;;;;;;7.45;1.42;;;;;;;;;;5044548;28;20172;-84
2022/08/08 13:06:37;;;;;;;4.82;1.30;;;;;;;;;;5056157;28;20185;-84
2022/08/08 13:09:45;;;;;;;4.28;1.20;;;;;;;;;;5031234;28;20623;-84
2022/08/08 13:12:50;;;;;;;4.95;1.27;;;;;;;;;;5042707;28;20216;-84
2022/08/08 13:16:16;;;;;;;4.88;1.52;;;;;;;;;;5043850;28;20567;-84
2022/08/08 13:19:22;;;;;;;18.63;1.60;;;;;;;;;;5023379;28;20182;-84
2022/08/08 13:22:27;;;;;;;2.88;1.13;;;;;;;;;;5031167;28;20216;-84
2022/08/08 13:25:33;;;;;;;4.78;1.40;;;;;;;;;;5043388;28;20173;-84
2022/08/08 13:28:37;;;;;;;12.48;1.38;;;;;;;;;;5031220;28;20192;-84
2022/08/08 13:31:49;;;;;;;3.47;1.08;;;;;;;;;;5022150;28;20228;-84
2022/08/08 13:34:57;;;;;;;3.47;1.23;;;;;;;;;;5033697;28;20205;-84
2022/08/08 13:38:03;;;;;;;1.60;1.20;;;;;;;;;;5011641;28;20182;-84
2022/08/08 13:41:07;;;;;;;2.60;1.45;;;;;;;;;;5022664;28;20683;-84
2022/08/08 13:44:12;;;;;;;4.75;1.40;;;;;;;;;;5011037;28;20173;-84
2022/08/08 13:47:16;;;;;;;1.77;1.08;;;;;;;;;;5011027;28;20520;-84
2022/08/08 13:50:20;;;;;;;17.83;1.90;;;;;;;;;;5010733;28;20627;-84
2022/08/08 13:53:29;;;;;;;9.40;1.10;;;;;;;;;;5021013;28;20212;-84
2022/08/08 13:56:36;;;;;;;6.03;1.50;;;;;;;;;;5021903;28;20185;-84
2022/08/08 13:59:43;;;;;;;2.55;1.35;;;;;;;;;;5021954;28;20181;-84
2022/08/08 14:03:00;;;;;;;1.65;1.30;;;;;;;;;;5033126;28;20217;-84
2022/08/08 14:06:08;;;;;;;1.45;1.15;;;;;;;;;;5021804;28;20196;-82
2022/08/08 14:09:13;;;;;;;2.25;1.00;;;;;;;;;;5033018;28;20173;-84
2022/08/08 14:12:17;;;;;;;2.33;1.25;;;;;;;;;;5022168;28;20213;-84
2022/08/08 14:15:35;;;;;;;3.28;1.25;;;;;;;;;;5112193;27;20922;-77
2022/08/08 14:18:52;;;;;;;1.20;0.95;;;;;;;;;;5111773;28;20177;-77
2022/08/08 14:21:57;;;;;;;2.35;1.35;;;;;;;;;;5099270;28;20211;-76
2022/08/08 14:25:05;;;;;;;5.50;1.20;;;;;;;;;;5110680;28;20171;-78
2022/08/08 14:28:09;;;;;;;5.40;1.30;;;;;;;;;;5111699;28;20175;-78
2022/08/08 14:31:13;;;;;;;3.22;1.40;;;;;;;;;;5111381;28;20680;-76
2022/08/08 14:34:17;;;;;;;2.17;1.30;;;;;;;;;;5111053;28;20202;-77
2022/08/08 14:37:23;;;;;;;2.50;1.10;;;;;;;;;;5109211;28;20724;-76
2022/08/08 14:40:27;;;;;;;2.40;1.30;;;;;;;;;;5110519;28;20630;-76
2022/08/08 14:43:46;;;;;;;10.40;1.98;;;;;;;;;;5111497;28;20626;-75
2022/08/08 14:46:57;;;;;;;1.35;1.20;;;;;;;;;;5109966;28;20538;-76
2022/08/08 14:50:04;;;;;;;1.20;1.00;;;;;;;;;;5110000;28;20175;-77
2022/08/08 14:53:11;;;;;;;6.40;1.38;;;;;;;;;;5110006;28;20179;-76
2022/08/08 14:56:16;;;;;;;3.13;1.10;;;;;;;;;;5112204;28;20602;-78
2022/08/08 14:59:20;;;;;;;3.42;1.10;;;;;;;;;;5110385;28;20202;-77
2022/08/08 15:02:24;;;;;;;5.80;1.35;;;;;;;;;;5091312;28;20227;-77
2022/08/08 15:05:30;;;;;;;8.15;1.90;;;;;;;;;;5092500;28;20183;-78
2022/08/08 15:08:36;;;;;;;5.93;1.33;;;;;;;;;;5079529;28;20184;-78
2022/08/08 15:11:40;;;;;;;7.05;1.50;;;;;;;;;;5088899;28;20726;-77
2022/08/08 15:14:44;;;;;;;2.22;1.15;;;;;;;;;;5090677;28;20223;-76
2022/08/08 15:17:49;;;;;;;1.25;1.10;;;;;;;;;;5090157;28;20183;-77
2022/08/08 15:20:52;;;;;;;11.98;1.63;;;;;;;;;;5088787;28;20211;-77
2022/08/08 15:23:57;;;;;;;4.38;1.35;;;;;;;;;;5091126;28;20177;-77
2022/08/08 15:27:01;;;;;;;1.17;1.02;;;;;;;;;;5076974;28;20176;-77
2022/08/08 15:30:06;;;;;;;9.00;1.40;;;;;;;;;;5077159;28;20180;-77
2022/08/08 15:33:11;;;;;;;1.48;1.13;;;;;;;;;;5076719;28;20187;-78
2022/08/08 15:36:15;;;;;;;1.83;1.10;;;;;;;;;;5077093;28;20183;-78
2022/08/08 15:39:19;;;;;;;3.05;1.00;;;;;;;;;;5065297;28;20191;-77
2022/08/08 15:42:23;;;;;;;4.68;1.25;;;;;;;;;;5077060;28;20219;-78
2022/08/08 15:45:28;;;;;;;3.05;1.17;;;;;;;;;;5077030;28;20184;-77
2022/08/08 15:48:32;;;;;;;4.88;1.27;;;;;;;;;;5075747;28;20198;-77
2022/08/08 15:51:36;;;;;;;2.30;0.85;;;;;;;;;;5076572;28;20221;-77
2022/08/08 15:54:41;;;;;;;4.30;1.40;;;;;;;;;;5076022;28;20207;-77
2022/08/08 15:57:46;;;;;;;1.10;1.00;;;;;;;;;;5075795;28;20187;-77
2022/08/08 16:00:50;;;;;;;6.88;1.60;;;;;;;;;;5076553;28;20216;-77
2022/08/08 16:03:54;;;;;;;10.93;1.30;;;;;;;;;;5075652;28;20180;-77
2022/08/08 16:06:58;;;;;;;2.58;1.38;;;;;;;;;;5077303;28;20176;-77
2022/08/08 16:10:03;;;;;;;7.20;1.25;;;;;;;;;;5075764;28;20179;-77
2022/08/08 16:13:07;;;;;;;3.72;1.27;;;;;;;;;;5075075;28;20180;-77
2022/08/08 16:16:13;;;;;;;2.53;1.10;;;;;;;;;;5076503;28;20520;-78
2022/08/08 16:19:17;;;;;;;2.95;1.42;;;;;;;;;;5075444;28;20183;-77
2022/08/08 16:22:21;;;;;;;3.30;1.10;;;;;;;;;;5075709;28;20219;-77
2022/08/08 16:25:25;;;;;;;2.83;1.30;;;;;;;;;;5075117;28;20174;-77
2022/08/08 16:28:31;;;;;;;18.42;2.42;;;;;;;;;;5074851;28;20179;-77
2022/08/08 16:31:40;;;;;;;4.22;1.52;;;;;;;;;;5063391;28;20212;-77
2022/08/08 16:34:44;;;;;;;2.70;1.08;;;;;;;;;;5074541;28;20655;-79
2022/08/08 16:37:49;;;;;;;1.55;1.27;;;;;;;;;;5075663;28;20203;-78
2022/08/08 16:40:55;;;;;;;4.35;1.10;;;;;;;;;;5064238;28;20600;-77
2022/08/08 16:43:59;;;;;;;4.32;1.50;;;;;;;;;;5065915;28;20640;-78
2022/08/08 16:47:16;;;;;;;1.50;1.20;;;;;;;;;;5075625;28;20182;-77
2022/08/08 16:50:20;;;;;;;23.30;2.60;;;;;;;;;;5063758;28;20180;-77
2022/08/08 16:53:24;;;;;;;4.82;1.60;;;;;;;;;;5061795;28;20180;-76
2022/08/08 16:56:28;;;;;;;7.65;1.40;;;;;;;;;;5074336;28;20649;-76
2022/08/08 16:59:32;;;;;;;10.60;1.90;;;;;;;;;;5072994;28;20189;-76
2022/08/08 17:02:37;;;;;;;26.20;3.45;;;;;;;;;;5073015;28;20228;-77
2022/08/08 17:05:41;;;;;;;3.90;1.30;;;;;;;;;;5062086;28;20182;-76
2022/08/08 17:08:45;;;;;;;47.50;5.22;;;;;;;;;;5072915;28;20175;-76
2022/08/08 17:11:49;;;;;;;4.53;1.43;;;;;;;;;;5073040;28;20219;-76
2022/08/08 17:14:54;;;;;;;5.93;1.25;;;;;;;;;;5063686;28;20230;-77
2022/08/08 17:17:58;;;;;;;1.67;1.33;;;;;;;;;;5061871;28;20191;-77
2022/08/08 17:21:08;;;;;;;1.80;1.30;;;;;;;;;;5061583;28;20221;-76
2022/08/08 17:24:12;;;;;;;23.70;2.73;;;;;;;;;;5073925;28;20175;-78
2022/08/08 17:27:16;;;;;;;32.13;2.63;;;;;;;;;;5075993;28;20195;-78
2022/08/08 17:30:21;;;;;;;8.97;1.90;;;;;;;;;;5075779;28;20195;-79
2022/08/08 17:33:25;;;;;;;3.83;1.47;;;;;;;;;;5076348;28;20177;-78
2022/08/08 17:36:29;;;;;;;18.73;2.57;;;;;;;;;;5063667;28;20205;-76
2022/08/08 17:39:33;;;;;;;14.00;2.27;;;;;;;;;;5075078;28;20190;-79
2022/08/08 17:42:38;;;;;;;3.73;1.20;;;;;;;;;;5074413;28;20216;-77
2022/08/08 17:45:41;;;;;;;1.60;1.33;;;;;;;;;;5074034;28;20178;-77
2022/08/08 17:48:46;;;;;;;3.60;1.13;;;;;;;;;;5072666;28;20180;-77
2022/08/08 17:51:52;;;;;;;7.13;1.47;;;;;;;;;;5072997;28;20221;-77
2022/08/08 17:54:56;;;;;;;1.23;1.10;;;;;;;;;;5060967;28;20199;-78
2022/08/08 17:58:00;;;;;;;2.77;1.37;;;;;;;;;;5075501;28;20183;-78
2022/08/08 18:01:07;;;;;;;4.17;1.57;;;;;;;;;;5073164;28;20216;-76
2022/08/08 18:04:13;;;;;;;1.80;1.30;;;;;;;;;;5072359;28;20175;-76
2022/08/08 18:07:17;;;;;;;1.83;1.47;;;;;;;;;;5072512;28;20173;-76
2022/08/08 18:10:21;;;;;;;5.33;1.70;;;;;;;;;;5060655;28;20190;-76
2022/08/08 18:13:25;;;;;;;9.87;1.60;;;;;;;;;;5072444;28;20183;-76
2022/08/08 18:16:30;;;;;;;4.67;1.77;;;;;;;;;;5072542;28;20209;-77
2022/08/08 18:19:35;;;;;;;11.77;2.00;;;;;;;;;;5072238;28;20197;-77
2022/08/08 18:22:39;;;;;;;8.63;1.60;;;;;;;;;;5074150;28;20696;-78
2022/08/08 18:25:43;;;;;;;4.17;1.60;;;;;;;;;;5074999;28;20172;-78
2022/08/08 18:28:47;;;;;;;4.23;1.40;;;;;;;;;;5075377;28;20179;-79
2022/08/08 18:31:51;;;;;;;2.30;1.37;;;;;;;;;;5063089;28;20564;-78
2022/08/08 18:34:57;;;;;;;3.37;1.33;;;;;;;;;;5075211;28;20201;-78
2022/08/08 18:38:01;;;;;;;7.47;1.50;;;;;;;;;;5064093;28;20519;-78
2022/08/08 18:41:05;;;;;;;18.80;2.57;;;;;;;;;;5063087;28;20211;-78
2022/08/08 18:44:09;;;;;;;5.90;1.53;;;;;;;;;;5074841;28;20184;-78
2022/08/08 18:47:13;;;;;;;4.13;1.40;;;;;;;;;;5073862;28;20180;-78
2022/08/08 18:50:17;;;;;;;1.80;1.47;;;;;;;;;;5074920;28;20180;-78
2022/08/08 18:53:21;;;;;;;2.43;1.40;;;;;;;;;;5073682;28;20176;-78
2022/08/08 18:56:31;;;;;;;8.10;1.60;;;;;;;;;;5073823;28;20211;-78
2022/08/08 18:59:35;;;;;;;3.07;1.50;;;;;;;;;;5074427;28;20184;-77